Pine Island, New York
Current Conditions -  °F | °C
As of 10:53 AM on Friday 19 Dec 2014 (Local Time) from KFWN Reporting Station
Overcast Overcast  
Wind Chill: 24°   Ceiling: 3200
Heat Index: 32°   Visibility: 10mi
Dew Point: 20°   Wind: 9mph
Humidity: 61%   Direction: 340°NNW
Pressure: 30.07"   Gusts: NA
Location:  41.3°N, 74.46°W
Report Text: KFWN 191553Z AUTO 34008KT 10SM OVC032 00/M07 A3007 RMK AO2 SLP185 T00001067
Loading
Personal Weather Stations






























Interactive Weather Map New forecast layout! Learn more

10-Day Weather Forecast

Advertisements
Track Severe Weather on mobile